Terminal Aerodrome Forecast
Issued by NWS

Home | Current Version | Previous Version | Text Only | Print | Product List | Glossary On
Versions: 1 2 3 4 5 6 7 8 9 10 11 12 13 14
000
FTUS45 KTFX 281100
TAFLWT
TAF
KLWT 281120Z 2812/2912 14007KT P6SM SKC
     FM282000 29012G20KT P6SM SCT120
     FM290300 26010KT P6SM VCSH SCT050 BKN080=

USA.gov is the U.S. government's official web portal to all federal, state and local government web resources and services.